Destinations Tivat Airport

Tivat Airport (LYTV / TIV)

Flights to Tivat Airport

Flight number From ETE Dispatch
SPY-530 EHGG Groningen Airport Eelde 02:30

Flights from Tivat Airport

Flight number To ETE Dispatch
SPY-531 EHGG Groningen Airport Eelde 02:45
About

Tivat Airport facts

Tivat Airport is located in Tivat at an elevation of 6.1 meters or 20 feet.

Currently, Speedy Airlines serves 2 flights to and from Tivat Airport.

Detailed airport info

Route map

Weather

Current weather

METAR

METAR

Metar data retrieved Sunday, 21 July 2024 at 19:25 UTC

LYTV 211900Z VRB01KT CAVOK 25/22 Q1008 NOSIG
Wind Temperature
1 kt 25c